메인 페이지
METAR-TAF:

METAR-TAF

공항 :

Point Mugu, 캘리포니아, 미국

위도: 34-07-26N, 경도: 119-07-18W, 고도: 3m

현재 날씨관측

예보는 24분 전, 20:55시(UTC)에 발표되었습니다.
남서8kt
온도 19°C
습도 78%
기압 1017 hPa
시정: 16.1km
고도 1300ft 상공 구름 많음
고도 2100ft 상공 흐림

METAR: KNTD 132055Z 22008KT 10SM BKN013 OVC021 19/15 A3002 RMK AO2 SLP166 T01890150 50002 $

시각: 14:19 (21:19 UTC)

예보

예보 대상 시간: 13일 15시부터 14일 15시까지 (UTC)
남남동8kt
시정 10km 이상
고도 1500ft 상공 흐림
일시적
13일 15시부터 13일 20시까지 (UTC)
고도 1000ft 상공 구름 많음
고도 1500ft 상공 흐림
전환 중
13일 20시부터 13일 22시까지 (UTC)
남서8kt
시정 10km 이상
고도 2000ft 상공 구름 보통
14일 0200시부터 (UTC)
6kt
시정 10km 이상
고도 600ft 상공 구름 많음
고도 1500ft 상공 구름 많음
14일 0500시부터 (UTC)
여러 방향의 바람 4kt
시정 10km 이상
고도 1000ft 상공 흐림

TAF: KNTD 1315/1415 15008KT 9999 OVC015 QNH2995INS TEMPO 1315/1320 BKN010 OVC015 BECMG 1320/1322 23008KT 9999 SCT020 QNH2993INS FM140200 26006KT 9999 BKN006 BKN015 QNH2996INS FM140500 VRB04KT 9999 OVC010 QNH2999INS TX19/1322Z TN14/1412Z FS30215

4,000개 이상의 공항 관측 자료 및 예보 (METAR 및 TAF 보고).

지도상에서 검색 가능한 기상관측소가 노란 점과 빨간 점으로 표시되어 있습니다.

기상관측소 명을 보려면 표시 위로 마우스를 이동하세요.

날씨 관측과 예보를 보려면 클릭하세요.

지도 변경 : 확대하려면 엑스 표시가 있는 녹색 버튼, 축소하려면 빼기 표시가 있는 녹색 버튼, 다음 페이지의 지도를 보려면 녹색 화살표를 클릭하세요.


METAR-TAF: